Ashford, Alabama
Current Conditions -  °F | °C
As of 8:53 AM on Wednesday 26 Nov 2014 (Local Time) from KDHN Reporting Station
Clear Clear  
Wind Chill: 42°   Ceiling: Unl
Heat Index: 47°   Visibility: 10mi
Dew Point: 36°   Wind: 10mph
Humidity: 66%   Direction: 320°NW
Pressure: 30.21"   Gusts: NA
Location:  31.18°N, 85.24°W
Report Text: KDHN 261453Z 32009KT 10SM CLR 08/02 A3021 RMK AO2 SLP231 T00830022 51029
Loading
Personal Weather Stations






























Interactive Weather Map New forecast layout! Learn more

10-Day Weather Forecast

Advertisements
Track Severe Weather on mobile